createdAt,value
2023-02-04T00:00:18.292Z,46
2023-02-04T00:05:24.173Z,45
2023-02-04T00:10:19.997Z,45
2023-02-04T00:15:15.821Z,45
2023-02-04T00:20:19.836Z,46
2023-02-04T00:25:19.577Z,46
2023-02-04T00:30:14.360Z,45
2023-02-04T00:35:18.145Z,45
2023-02-04T00:40:13.955Z,45
2023-02-04T00:45:19.810Z,45
2023-02-04T00:50:17.757Z,44
2023-02-04T00:55:18.586Z,44
2023-02-04T01:00:29.264Z,44
2023-02-04T01:05:20.392Z,44
2023-02-04T01:10:14.279Z,44
2023-02-04T01:15:16.289Z,44
2023-02-04T01:20:16.268Z,44
2023-02-04T01:25:13.992Z,44
2023-02-04T01:30:17.837Z,44
2023-02-04T01:35:17.980Z,44
2023-02-04T01:40:13.822Z,44
2023-02-04T01:45:17.823Z,44
2023-02-04T01:50:21.947Z,43
2023-02-04T01:55:13.844Z,44
2023-02-04T02:00:19.714Z,44
2023-02-04T02:05:14.641Z,44
2023-02-04T02:10:20.430Z,44
2023-02-04T02:15:22.264Z,44
2023-02-04T02:20:16.054Z,42
2023-02-04T02:25:15.804Z,44
2023-02-04T02:30:18.612Z,44
2023-02-04T02:35:20.382Z,44
2023-02-04T02:40:20.278Z,44
2023-02-04T02:45:22.085Z,44
2023-02-04T02:50:17.805Z,44
2023-02-04T02:55:13.753Z,42
2023-02-04T03:00:14.694Z,44
2023-02-04T03:05:18.590Z,42
2023-02-04T03:10:20.401Z,44
2023-02-04T03:15:14.195Z,43
2023-02-04T03:20:14.065Z,43
2023-02-04T03:25:15.832Z,43
2023-02-04T03:30:15.707Z,43
2023-02-04T03:35:14.696Z,43
2023-02-04T03:40:16.407Z,43
2023-02-04T03:45:20.233Z,43
2023-02-04T03:50:30.736Z,42
2023-02-04T03:55:15.970Z,42
2023-02-04T04:00:17.881Z,43
2023-02-04T04:05:15.771Z,43
2023-02-04T04:10:18.672Z,42
2023-02-04T04:15:16.487Z,43
2023-02-04T04:20:26.369Z,43
2023-02-04T04:25:18.472Z,43
2023-02-04T04:30:20.665Z,43
2023-02-04T04:35:16.420Z,43
2023-02-04T04:40:18.297Z,43
2023-02-04T04:45:14.086Z,43
2023-02-04T04:50:15.810Z,42
2023-02-04T04:55:13.601Z,43
2023-02-04T05:00:24.426Z,43
2023-02-04T05:05:16.647Z,43
2023-02-04T05:10:14.524Z,42
2023-02-04T05:15:20.403Z,43
2023-02-04T05:20:18.237Z,43
2023-02-04T05:25:18.140Z,43
2023-02-04T05:30:17.944Z,43
2023-02-04T05:35:20.873Z,42
2023-02-04T05:40:13.804Z,43
2023-02-04T05:45:15.743Z,43
2023-02-04T05:50:26.807Z,43
2023-02-04T05:55:19.574Z,43
2023-02-04T06:00:16.420Z,42
2023-02-04T06:05:15.634Z,43
2023-02-04T06:10:14.523Z,43
2023-02-04T06:15:20.397Z,43
2023-02-04T06:20:20.222Z,43
2023-02-04T06:25:26.053Z,41
2023-02-04T06:30:25.923Z,43
2023-02-04T06:35:13.753Z,43
2023-02-04T06:40:18.530Z,43
2023-02-04T06:45:18.312Z,43
2023-02-04T06:50:18.194Z,43
2023-02-04T06:55:19.961Z,42
2023-02-04T07:00:16.032Z,43
2023-02-04T07:05:18.380Z,41
2023-02-04T07:10:16.184Z,42
2023-02-04T07:15:14.042Z,42
2023-02-04T07:20:16.066Z,41
2023-02-04T07:25:13.830Z,43
2023-02-04T07:30:19.811Z,42
2023-02-04T07:35:17.678Z,46
2023-02-04T07:40:16.402Z,47
2023-02-04T07:45:16.146Z,46
2023-02-04T07:50:19.920Z,46
2023-02-04T07:55:15.627Z,45
2023-02-04T08:00:20.489Z,45
2023-02-04T08:05:14.196Z,45
2023-02-04T08:10:20.356Z,45
2023-02-04T08:15:14.264Z,46
2023-02-04T08:20:18.069Z,46
2023-02-04T08:25:17.828Z,45
2023-02-04T08:30:16.127Z,44
2023-02-04T08:35:22.538Z,45
2023-02-04T08:40:16.646Z,48
2023-02-04T08:45:18.953Z,47
2023-02-04T08:50:14.173Z,46
2023-02-04T08:55:13.924Z,47
2023-02-04T09:00:19.786Z,46
2023-02-04T09:05:27.855Z,46
2023-02-04T09:10:13.611Z,46
2023-02-04T09:15:18.478Z,46
2023-02-04T09:20:14.322Z,46
2023-02-04T09:25:18.111Z,46
2023-02-04T09:30:24.173Z,46
2023-02-04T09:35:23.918Z,45
2023-02-04T09:40:15.829Z,46
2023-02-04T09:45:13.670Z,46
2023-02-04T09:50:16.673Z,46
2023-02-04T09:55:18.531Z,46
2023-02-04T10:00:16.643Z,46
2023-02-04T10:05:17.774Z,44
2023-02-04T10:10:14.768Z,46
2023-02-04T10:15:14.585Z,46
2023-02-04T10:20:14.328Z,46
2023-02-04T10:25:16.078Z,46
2023-02-04T10:30:13.904Z,46
2023-02-04T10:35:18.052Z,46
2023-02-04T10:40:17.850Z,46
2023-02-04T10:45:13.634Z,46
2023-02-04T10:50:18.652Z,44
2023-02-04T10:55:18.579Z,46
2023-02-04T11:00:20.500Z,45
2023-02-04T11:05:14.157Z,45
2023-02-04T11:10:14.240Z,45
2023-02-04T11:15:31.297Z,45
2023-02-04T11:20:16.427Z,44
2023-02-04T11:25:16.388Z,45
2023-02-04T11:30:14.254Z,44
2023-02-04T11:35:16.054Z,45
2023-02-04T11:40:13.863Z,45
2023-02-04T11:45:13.709Z,45
2023-02-04T11:50:14.540Z,45
2023-02-04T11:55:16.408Z,45
2023-02-04T12:00:16.320Z,44
2023-02-04T12:05:18.230Z,45
2023-02-04T12:10:14.359Z,45
2023-02-04T12:15:18.234Z,44
2023-02-04T12:20:16.077Z,45
2023-02-04T12:25:15.827Z,45
2023-02-04T12:30:17.669Z,45
2023-02-04T12:35:20.433Z,45
2023-02-04T12:40:18.189Z,44
2023-02-04T12:45:14.089Z,45
2023-02-04T12:50:15.828Z,44
2023-02-04T12:55:15.714Z,44
2023-02-04T13:00:24.632Z,45
2023-02-04T13:05:14.529Z,45
2023-02-04T13:10:18.612Z,45
2023-02-04T13:15:14.453Z,44
2023-02-04T13:20:14.308Z,44
2023-02-04T13:25:23.957Z,44
2023-02-04T13:30:13.769Z,44
2023-02-04T13:35:14.572Z,45
2023-02-04T13:40:14.518Z,44
2023-02-04T13:45:16.420Z,45
2023-02-04T13:50:22.539Z,45
2023-02-04T13:55:22.467Z,43
2023-02-04T14:00:20.260Z,44
2023-02-04T14:05:18.525Z,44
2023-02-04T14:10:20.527Z,44
2023-02-04T14:15:18.426Z,44
2023-02-04T14:20:20.400Z,44
2023-02-04T14:25:18.152Z,44
2023-02-04T14:30:14.103Z,44
2023-02-04T14:35:24.227Z,43
2023-02-04T14:40:19.995Z,44
2023-02-04T14:45:13.799Z,45
2023-02-04T14:50:13.623Z,44
2023-02-04T14:55:14.457Z,44
2023-02-04T15:00:20.385Z,45
2023-02-04T15:05:21.998Z,45
2023-02-04T15:10:17.945Z,45
2023-02-04T15:15:14.044Z,44
2023-02-04T15:20:14.059Z,44
2023-02-04T15:25:19.854Z,44
2023-02-04T15:30:15.808Z,44
2023-02-04T15:35:17.654Z,44
2023-02-04T15:40:22.536Z,44
2023-02-04T15:45:18.423Z,44
2023-02-04T15:50:18.700Z,44
2023-02-04T15:55:14.498Z,43
2023-02-04T16:00:18.932Z,44
2023-02-04T16:05:20.429Z,44
2023-02-04T16:10:18.576Z,44
2023-02-04T16:15:14.463Z,44
2023-02-04T16:20:17.098Z,44
2023-02-04T16:25:13.881Z,45
2023-02-04T16:30:22.156Z,44
2023-02-04T16:35:32.637Z,43
2023-02-04T16:40:16.174Z,43
2023-02-04T16:45:20.008Z,44
2023-02-04T16:50:17.972Z,44
2023-02-04T16:55:13.841Z,45
2023-02-04T17:00:22.130Z,45
2023-02-04T17:05:21.874Z,45
2023-02-04T17:10:16.046Z,45
2023-02-04T17:15:18.349Z,45
2023-02-04T17:20:14.515Z,45
2023-02-04T17:25:14.267Z,46
2023-02-04T17:30:16.266Z,45
2023-02-04T17:35:18.400Z,46
2023-02-04T17:40:18.243Z,46
2023-02-04T17:45:18.305Z,46
2023-02-04T17:50:18.069Z,45
2023-02-04T17:55:13.749Z,46
2023-02-04T18:00:18.745Z,47
2023-02-04T18:05:16.049Z,47
2023-02-04T18:10:17.911Z,46
2023-02-04T18:15:13.946Z,46
2023-02-04T18:20:14.859Z,47
2023-02-04T18:25:15.592Z,48
2023-02-04T18:30:14.458Z,48
2023-02-04T18:35:16.553Z,49
2023-02-04T18:40:14.346Z,48
2023-02-04T18:45:16.460Z,47
2023-02-04T18:50:20.342Z,47
2023-02-04T18:55:16.136Z,47
2023-02-04T19:00:16.170Z,47
2023-02-04T19:05:30.604Z,47
2023-02-04T19:10:24.667Z,46
2023-02-04T19:15:26.624Z,46
2023-02-04T19:20:16.620Z,46
2023-02-04T19:25:16.822Z,47
2023-02-04T19:30:17.690Z,47
2023-02-04T19:35:16.530Z,46
2023-02-04T19:40:18.402Z,47
2023-02-04T19:45:22.349Z,47
2023-02-04T19:50:16.260Z,47
2023-02-04T19:55:14.320Z,47
2023-02-04T20:00:18.296Z,47
2023-02-04T20:05:14.155Z,47
2023-02-04T20:10:14.117Z,47
2023-02-04T20:15:18.029Z,47
2023-02-04T20:20:17.973Z,47
2023-02-04T20:25:19.886Z,46
2023-02-04T20:30:21.938Z,45
2023-02-04T20:35:17.748Z,46
2023-02-04T20:40:14.518Z,46
2023-02-04T20:45:22.324Z,46
2023-02-04T20:50:24.080Z,46
2023-02-04T20:55:13.842Z,46
2023-02-04T21:00:15.878Z,46
2023-02-04T21:05:19.768Z,46
2023-02-04T21:10:20.560Z,46
2023-02-04T21:15:16.443Z,45
2023-02-04T21:20:16.341Z,44
2023-02-04T21:25:16.121Z,46
2023-02-04T21:30:18.056Z,44
2023-02-04T21:35:15.860Z,46
2023-02-04T21:40:19.762Z,44
2023-02-04T21:45:16.621Z,46
2023-02-04T21:50:16.462Z,46
2023-02-04T21:55:16.566Z,45
2023-02-04T22:00:18.405Z,45
2023-02-04T22:05:14.235Z,45
2023-02-04T22:10:16.041Z,45
2023-02-04T22:15:20.078Z,45
2023-02-04T22:20:13.975Z,46
2023-02-04T22:25:15.701Z,45
2023-02-04T22:30:14.799Z,45
2023-02-04T22:35:21.699Z,45
2023-02-04T22:40:18.493Z,45
2023-02-04T22:45:14.367Z,44
2023-02-04T22:50:14.099Z,43
2023-02-04T22:55:17.875Z,43
2023-02-04T23:00:18.272Z,45
2023-02-04T23:05:16.521Z,45
2023-02-04T23:10:16.517Z,45
2023-02-04T23:15:14.424Z,45
2023-02-04T23:20:14.385Z,45
2023-02-04T23:25:24.058Z,44
2023-02-04T23:30:13.955Z,45
2023-02-04T23:35:15.781Z,45
2023-02-04T23:40:14.555Z,45
2023-02-04T23:45:16.458Z,45
2023-02-04T23:50:20.347Z,45
2023-02-04T23:55:18.669Z,44
